Addison, Illinois
Current Conditions -  °F | °C
As of 9:51 PM on Wednesday 28 Jan 2015 (Local Time) from KORD Reporting Station
Overcast Overcast  
Wind Chill: 23°   Ceiling: 11000
Heat Index: 33°   Visibility: 10mi
Dew Point: 21°   Wind: 14mph
Humidity: 61%   Direction: 170°S
Pressure: 29.88"   Gusts: NA
Location:  41.93°N, 87.99°W
Report Text: KORD 290351Z 17012KT 10SM BKN110 OVC210 01/M06 A2988 RMK AO2 SLP127 T00061061
Loading
Personal Weather Stations






























Interactive Weather Map New forecast layout! Learn more

10-Day Weather Forecast

Advertisements
Track Severe Weather on mobile